Time,TemperatureF,DewpointF,PressureIn,WindDirection,WindDirectionDegrees,WindSpeedMPH,WindSpeedGustMPH,Humidity,HourlyPrecipIn,Conditions,Clouds,dailyrainin,SolarRadiationWatts/m^2,SoftwareType,DateUTC
2013-01-29 00:04:00,51.0,49.0,-100.00,SSW,197,9.0,14.0,92,0.00,,,0.28,0.000000,,2013-01-29 05:04:00,
2013-01-29 00:32:00,51.0,48.0,-100.00,SSW,197,9.0,14.0,89,0.00,,,0.24,0.000000,,2013-01-29 05:32:00,
2013-01-29 00:43:00,51.0,48.0,-100.00,SSW,197,9.0,14.0,89,0.00,,,0.24,0.000000,,2013-01-29 05:43:00,
2013-01-29 00:52:00,51.0,48.0,-100.00,SSW,197,9.0,14.0,89,0.00,,,0.24,0.000000,,2013-01-29 05:52:00,
2013-01-29 01:02:00,51.0,48.0,-100.00,SSW,197,9.0,14.0,89,0.00,,,0.24,0.000000,,2013-01-29 06:02:00,
2013-01-29 01:32:00,51.0,48.0,-100.00,SSW,198,10.0,15.0,89,0.00,,,0.23,0.000000,,2013-01-29 06:32:00,
2013-01-29 01:42:00,51.0,48.0,-100.00,SSW,198,10.0,15.0,89,0.00,,,0.23,0.000000,,2013-01-29 06:42:00,
2013-01-29 01:52:00,51.0,48.0,-100.00,SSW,198,10.0,15.0,89,0.00,,,0.23,0.000000,,2013-01-29 06:52:00,
2013-01-29 02:02:00,51.0,48.0,-100.00,SSW,198,10.0,15.0,89,0.00,,,0.23,0.000000,,2013-01-29 07:02:00,
2013-01-29 02:32:00,52.0,49.0,-100.00,SSW,201,8.0,14.0,88,0.00,,,0.23,0.000000,,2013-01-29 07:32:00,
2013-01-29 02:42:00,52.0,49.0,-100.00,SSW,201,8.0,14.0,88,0.00,,,0.23,0.000000,,2013-01-29 07:42:00,
2013-01-29 02:52:00,52.0,49.0,-100.00,SSW,201,8.0,14.0,88,0.00,,,0.23,0.000000,,2013-01-29 07:52:00,
2013-01-29 03:02:00,52.0,49.0,-100.00,SSW,201,8.0,14.0,88,0.00,,,0.23,0.000000,,2013-01-29 08:02:00,
2013-01-29 03:32:00,51.0,47.0,-100.00,SSW,199,9.0,14.0,87,0.00,,,0.23,0.000000,,2013-01-29 08:32:00,
2013-01-29 03:42:00,51.0,47.0,-100.00,SSW,199,9.0,14.0,87,0.00,,,0.23,0.000000,,2013-01-29 08:42:00,
2013-01-29 03:52:00,51.0,47.0,-100.00,SSW,199,9.0,14.0,87,0.00,,,0.23,0.000000,,2013-01-29 08:52:00,
2013-01-29 04:02:00,51.0,47.0,-100.00,SSW,199,9.0,14.0,87,0.00,,,0.23,0.000000,,2013-01-29 09:02:00,
2013-01-29 04:32:00,52.0,48.0,-100.00,SSW,197,9.0,15.0,87,0.00,,,0.23,0.000000,,2013-01-29 09:32:00,
2013-01-29 04:42:00,52.0,48.0,-100.00,SSW,197,9.0,15.0,87,0.00,,,0.23,0.000000,,2013-01-29 09:42:00,
2013-01-29 04:52:00,52.0,48.0,-100.00,SSW,197,9.0,15.0,87,0.00,,,0.23,0.000000,,2013-01-29 09:52:00,
2013-01-29 05:02:00,52.0,48.0,-100.00,SSW,197,9.0,15.0,87,0.00,,,0.23,0.000000,,2013-01-29 10:02:00,
2013-01-29 05:32:00,51.0,48.0,-100.00,SSW,195,10.0,15.0,89,0.00,,,0.23,0.000000,,2013-01-29 10:32:00,
2013-01-29 05:42:00,51.0,48.0,-100.00,SSW,195,10.0,15.0,89,0.00,,,0.23,0.000000,,2013-01-29 10:42:00,
2013-01-29 05:52:00,51.0,48.0,-100.00,SSW,195,10.0,15.0,89,0.00,,,0.23,0.000000,,2013-01-29 10:52:00,
2013-01-29 06:02:00,51.0,48.0,-100.00,SSW,195,10.0,15.0,89,0.00,,,0.23,0.000000,,2013-01-29 11:02:00,
2013-01-29 06:32:00,51.0,48.0,-100.00,SSW,196,9.0,15.0,90,0.00,,,0.23,0.000000,,2013-01-29 11:32:00,
2013-01-29 06:42:00,51.0,48.0,-100.00,SSW,196,9.0,15.0,90,0.00,,,0.23,0.000000,,2013-01-29 11:42:00,
2013-01-29 06:53:00,51.0,48.0,-100.00,SSW,196,9.0,15.0,90,0.00,,,0.23,0.000000,,2013-01-29 11:53:00,
2013-01-29 07:03:00,51.0,48.0,-100.00,SSW,196,9.0,15.0,90,0.00,,,0.23,0.000000,,2013-01-29 12:03:00,
2013-01-29 07:33:00,50.0,47.0,-100.00,SSW,194,8.0,13.0,90,0.00,,,0.23,0.000000,,2013-01-29 12:33:00,
2013-01-29 07:43:00,50.0,47.0,-100.00,SSW,194,8.0,13.0,90,0.00,,,0.23,0.000000,,2013-01-29 12:43:00,
2013-01-29 07:53:00,50.0,47.0,-100.00,SSW,194,8.0,13.0,90,0.00,,,0.23,0.000000,,2013-01-29 12:53:00,
2013-01-29 08:02:00,50.0,47.0,-100.00,SSW,194,8.0,13.0,90,0.00,,,0.23,0.000000,,2013-01-29 13:02:00,
2013-01-29 08:32:00,51.0,48.0,-100.00,SSW,195,10.0,15.0,89,0.00,,,0.23,5.000000,,2013-01-29 13:32:00,
2013-01-29 08:43:00,51.0,48.0,-100.00,SSW,195,10.0,15.0,89,0.00,,,0.23,5.000000,,2013-01-29 13:43:00,
2013-01-29 08:53:00,51.0,48.0,-100.00,SSW,195,10.0,15.0,89,0.00,,,0.23,5.000000,,2013-01-29 13:53:00,
2013-01-29 09:02:00,51.0,48.0,-100.00,SSW,195,10.0,15.0,89,0.00,,,0.23,5.000000,,2013-01-29 14:02:00,
2013-01-29 09:33:00,54.0,48.0,-100.00,SSW,194,7.0,14.0,81,0.00,,,0.23,82.000000,,2013-01-29 14:33:00,
2013-01-29 09:43:00,54.0,48.0,-100.00,SSW,194,7.0,14.0,81,0.00,,,0.23,82.000000,,2013-01-29 14:43:00,
2013-01-29 09:53:00,54.0,48.0,-100.00,SSW,194,7.0,14.0,81,0.00,,,0.23,82.000000,,2013-01-29 14:53:00,
2013-01-29 10:03:00,54.0,48.0,-100.00,SSW,194,7.0,14.0,81,0.00,,,0.23,82.000000,,2013-01-29 15:03:00,
2013-01-29 10:33:00,58.0,50.0,-100.00,SSW,196,7.0,15.0,74,0.00,,,0.23,227.000000,,2013-01-29 15:33:00,
2013-01-29 10:43:00,58.0,50.0,-100.00,SSW,196,7.0,15.0,74,0.00,,,0.23,227.000000,,2013-01-29 15:43:00,
2013-01-29 10:53:00,58.0,50.0,-100.00,SSW,196,7.0,15.0,74,0.00,,,0.23,227.000000,,2013-01-29 15:53:00,
2013-01-29 11:03:00,58.0,50.0,-100.00,SSW,196,7.0,15.0,74,0.00,,,0.23,227.000000,,2013-01-29 16:03:00,
2013-01-29 11:33:00,62.0,52.0,-100.00,SSW,200,10.0,19.0,70,0.00,,,0.23,409.000000,,2013-01-29 16:33:00,
2013-01-29 11:43:00,62.0,52.0,-100.00,SSW,200,10.0,19.0,70,0.00,,,0.23,409.000000,,2013-01-29 16:43:00,
2013-01-29 11:53:00,62.0,52.0,-100.00,SSW,200,10.0,19.0,70,0.00,,,0.23,409.000000,,2013-01-29 16:53:00,
2013-01-29 12:03:00,62.0,52.0,-100.00,SSW,200,10.0,19.0,70,0.00,,,0.23,409.000000,,2013-01-29 17:03:00,
2013-01-29 12:33:00,67.0,54.0,-100.00,South,184,9.0,20.0,63,0.00,,,0.23,618.000000,,2013-01-29 17:33:00,
2013-01-29 12:42:00,67.0,54.0,-100.00,South,184,9.0,20.0,63,0.00,,,0.23,618.000000,,2013-01-29 17:42:00,
2013-01-29 12:53:00,67.0,54.0,-100.00,South,184,9.0,20.0,63,0.00,,,0.23,618.000000,,2013-01-29 17:53:00,
2013-01-29 13:04:00,67.0,54.0,-100.00,South,184,9.0,20.0,63,0.00,,,0.23,618.000000,,2013-01-29 18:04:00,
2013-01-29 13:33:00,69.0,54.0,-100.00,SSW,205,15.0,27.0,58,0.00,,,0.23,648.000000,,2013-01-29 18:33:00,
2013-01-29 13:42:00,69.0,54.0,-100.00,SSW,205,15.0,27.0,58,0.00,,,0.23,648.000000,,2013-01-29 18:42:00,
2013-01-29 13:52:00,69.0,54.0,-100.00,SSW,205,15.0,27.0,58,0.00,,,0.23,648.000000,,2013-01-29 18:52:00,
2013-01-29 14:03:00,69.0,54.0,-100.00,SSW,205,15.0,27.0,58,0.00,,,0.23,648.000000,,2013-01-29 19:03:00,
2013-01-29 14:33:00,69.0,53.0,-100.00,South,188,13.0,22.0,57,0.00,,,0.11,445.000000,,2013-01-29 19:33:00,
2013-01-29 14:42:00,69.0,53.0,-100.00,South,188,13.0,22.0,57,0.00,,,0.11,445.000000,,2013-01-29 19:42:00,
2013-01-29 14:52:00,69.0,53.0,-100.00,South,188,13.0,22.0,57,0.00,,,0.11,445.000000,,2013-01-29 19:52:00,
2013-01-29 15:03:00,69.0,53.0,-100.00,South,188,13.0,22.0,57,0.00,,,0.11,445.000000,,2013-01-29 20:03:00,
2013-01-29 15:33:00,69.0,53.0,-100.00,South,185,12.0,20.0,57,0.00,,,0.04,357.000000,,2013-01-29 20:33:00,
2013-01-29 15:43:00,69.0,53.0,-100.00,South,185,12.0,20.0,57,0.00,,,0.04,357.000000,,2013-01-29 20:43:00,
2013-01-29 15:53:00,69.0,53.0,-100.00,South,185,12.0,20.0,57,0.00,,,0.04,357.000000,,2013-01-29 20:53:00,
2013-01-29 16:03:00,69.0,53.0,-100.00,South,185,12.0,20.0,57,0.00,,,0.04,357.000000,,2013-01-29 21:03:00,
2013-01-29 16:34:00,68.0,53.0,-100.00,South,175,7.0,24.0,59,0.00,,,0.03,201.000000,,2013-01-29 21:34:00,
2013-01-29 16:42:00,68.0,53.0,-100.00,South,175,7.0,24.0,59,0.00,,,0.03,201.000000,,2013-01-29 21:42:00,
2013-01-29 16:53:00,68.0,53.0,-100.00,South,175,7.0,24.0,59,0.00,,,0.03,201.000000,,2013-01-29 21:53:00,
2013-01-29 17:03:00,68.0,53.0,-100.00,South,175,7.0,24.0,59,0.00,,,0.03,201.000000,,2013-01-29 22:03:00,
2013-01-29 17:33:00,67.0,54.0,-100.00,South,184,11.0,20.0,63,0.00,,,0.01,123.000000,,2013-01-29 22:33:00,
2013-01-29 17:43:00,67.0,54.0,-100.00,South,184,11.0,20.0,63,0.00,,,0.01,123.000000,,2013-01-29 22:43:00,
2013-01-29 17:53:00,67.0,54.0,-100.00,South,184,11.0,20.0,63,0.00,,,0.01,123.000000,,2013-01-29 22:53:00,
2013-01-29 18:02:00,67.0,54.0,-100.00,South,184,11.0,20.0,63,0.00,,,0.01,123.000000,,2013-01-29 23:02:00,
2013-01-29 18:33:00,65.0,54.0,-100.00,South,187,9.0,21.0,68,0.00,,,0.01,17.000000,,2013-01-29 23:33:00,
2013-01-29 18:42:00,65.0,54.0,-100.00,South,187,9.0,21.0,68,0.00,,,0.01,17.000000,,2013-01-29 23:42:00,
2013-01-29 18:53:00,65.0,54.0,-100.00,South,187,9.0,21.0,68,0.00,,,0.01,17.000000,,2013-01-29 23:53:00,
2013-01-29 19:03:00,65.0,54.0,-100.00,South,187,9.0,21.0,68,0.00,,,0.01,17.000000,,2013-01-30 00:03:00,
2013-01-29 19:33:00,65.0,55.0,-100.00,South,190,14.0,26.0,71,0.00,,,0.01,0.000000,,2013-01-30 00:33:00,
2013-01-29 19:43:00,65.0,55.0,-100.00,South,190,14.0,26.0,71,0.00,,,0.01,0.000000,,2013-01-30 00:43:00,
2013-01-29 19:53:00,65.0,55.0,-100.00,South,190,14.0,26.0,71,0.00,,,0.01,0.000000,,2013-01-30 00:53:00,
2013-01-29 20:02:00,65.0,55.0,-100.00,South,190,14.0,26.0,71,0.00,,,0.01,0.000000,,2013-01-30 01:02:00,
2013-01-29 20:32:00,64.0,55.0,-100.00,South,191,11.0,22.0,73,0.00,,,0.00,0.000000,,2013-01-30 01:32:00,
2013-01-29 20:43:00,64.0,55.0,-100.00,South,191,11.0,22.0,73,0.00,,,0.00,0.000000,,2013-01-30 01:43:00,
2013-01-29 20:52:00,64.0,55.0,-100.00,South,191,11.0,22.0,73,0.00,,,0.00,0.000000,,2013-01-30 01:52:00,
2013-01-29 21:02:00,64.0,55.0,-100.00,South,191,11.0,22.0,73,0.00,,,0.00,0.000000,,2013-01-30 02:02:00,
2013-01-29 21:33:00,63.0,55.0,-100.00,South,190,11.0,20.0,76,0.00,,,0.00,0.000000,,2013-01-30 02:33:00,
2013-01-29 21:42:00,63.0,55.0,-100.00,South,190,11.0,20.0,76,0.00,,,0.00,0.000000,,2013-01-30 02:42:00,
2013-01-29 21:53:00,63.0,55.0,-100.00,South,190,11.0,20.0,76,0.00,,,0.00,0.000000,,2013-01-30 02:53:00,
2013-01-29 22:03:00,63.0,55.0,-100.00,South,190,11.0,20.0,76,0.00,,,0.00,0.000000,,2013-01-30 03:03:00,
2013-01-29 22:32:00,63.0,55.0,-100.00,South,182,11.0,23.0,76,0.00,,,0.00,0.000000,,2013-01-30 03:32:00,
2013-01-29 22:42:00,63.0,55.0,-100.00,South,182,11.0,23.0,76,0.00,,,0.00,0.000000,,2013-01-30 03:42:00,
2013-01-29 22:52:00,63.0,55.0,-100.00,South,182,11.0,23.0,76,0.00,,,0.00,0.000000,,2013-01-30 03:52:00,
2013-01-29 23:02:00,63.0,55.0,-100.00,South,182,11.0,23.0,76,0.00,,,0.00,0.000000,,2013-01-30 04:02:00,
2013-01-29 23:32:00,62.0,54.0,-100.00,South,185,11.0,19.0,74,0.00,,,0.00,0.000000,,2013-01-30 04:32:00,
2013-01-29 23:42:00,62.0,54.0,-100.00,South,185,11.0,19.0,74,0.00,,,0.00,0.000000,,2013-01-30 04:42:00,
2013-01-29 23:52:00,62.0,54.0,-100.00,South,185,11.0,19.0,74,0.00,,,0.00,0.000000,,2013-01-30 04:52:00,